Isle of Benbecula, United Kingdom
Current Conditions -  °F | °C
As of 6:50 PM on Friday 21 Nov 2014 (Local Time) from EGPL Reporting Station
Few Clouds Few Clouds  
Wind Chill: 50°   Ceiling: Unl
Heat Index: 50°   Visibility: 6mi
Dew Point: 41°   Wind: 17mph
Humidity: 71%   Direction: 120°ESE
Pressure: 29.74"   Gusts: NA
Location:  57.47°N, 7.37°W
Report Text: EGPL 211850Z AUTO 12015KT 9999 FEW040/// 10/05 Q1007
Loading
Personal Weather Stations






























Interactive Weather Map New forecast layout! Learn more

10-Day Weather Forecast

Advertisements
Track Severe Weather on mobile